sensor_id;sensor_type;location;lat;lon;timestamp;pressure;altitude;pressure_sealevel;temperature;humidity
44144;BME280;68165;51.920;4.492;2023-07-22T00:01:54;67961.28;;;19.00;86.74
44144;BME280;68165;51.920;4.492;2023-07-22T00:04:19;67963.94;;;19.00;86.68
44144;BME280;68165;51.920;4.492;2023-07-22T00:06:45;67957.91;;;18.97;86.79
44144;BME280;68165;51.920;4.492;2023-07-22T00:09:10;67953.44;;;18.93;87.16
44144;BME280;68165;51.920;4.492;2023-07-22T00:11:35;67953.13;;;18.88;87.47
44144;BME280;68165;51.920;4.492;2023-07-22T00:14:01;67949.34;;;18.87;87.38
44144;BME280;68165;51.920;4.492;2023-07-22T00:16:26;67948.22;;;18.86;86.66
44144;BME280;68165;51.920;4.492;2023-07-22T00:18:51;67949.75;;;18.85;85.82
44144;BME280;68165;51.920;4.492;2023-07-22T00:21:17;67945.00;;;18.86;85.37
44144;BME280;68165;51.920;4.492;2023-07-22T00:23:42;67944.28;;;18.83;84.28
44144;BME280;68165;51.920;4.492;2023-07-22T00:26:07;67941.47;;;18.80;83.57
44144;BME280;68165;51.920;4.492;2023-07-22T00:28:34;67941.88;;;18.78;82.68
44144;BME280;68165;51.920;4.492;2023-07-22T00:31:02;67936.44;;;18.75;82.21
44144;BME280;68165;51.920;4.492;2023-07-22T00:33:28;67934.34;;;18.76;81.70
44144;BME280;68165;51.920;4.492;2023-07-22T00:35:53;67933.59;;;18.73;81.30
44144;BME280;68165;51.920;4.492;2023-07-22T00:38:19;67934.19;;;18.73;80.77
44144;BME280;68165;51.920;4.492;2023-07-22T00:40:45;67933.47;;;18.70;80.29
44144;BME280;68165;51.920;4.492;2023-07-22T00:43:10;67927.59;;;18.70;80.21
44144;BME280;68165;51.920;4.492;2023-07-22T00:45:36;67924.22;;;18.67;80.12
44144;BME280;68165;51.920;4.492;2023-07-22T00:48:02;67925.34;;;18.68;80.01
44144;BME280;68165;51.920;4.492;2023-07-22T00:50:30;67926.47;;;18.69;79.91
44144;BME280;68165;51.920;4.492;2023-07-22T00:52:56;67924.78;;;18.67;79.67
44144;BME280;68165;51.920;4.492;2023-07-22T00:55:23;67925.34;;;18.68;80.08
44144;BME280;68165;51.920;4.492;2023-07-22T00:57:48;67926.31;;;18.66;80.44
44144;BME280;68165;51.920;4.492;2023-07-22T01:00:14;67926.88;;;18.67;80.49
44144;BME280;68165;51.920;4.492;2023-07-22T01:02:41;67925.50;;;18.70;80.43
44144;BME280;68165;51.920;4.492;2023-07-22T01:05:09;67930.38;;;18.72;80.28
44144;BME280;68165;51.920;4.492;2023-07-22T01:07:38;67937.41;;;18.74;80.27
44144;BME280;68165;51.920;4.492;2023-07-22T01:10:04;67938.81;;;18.80;80.10
44144;BME280;68165;51.920;4.492;2023-07-22T01:12:36;67953.13;;;18.88;79.50
44144;BME280;68165;51.920;4.492;2023-07-22T01:15:02;67957.22;;;18.94;79.50
44144;BME280;68165;51.920;4.492;2023-07-22T01:17:29;67959.59;;;18.99;79.24
44144;BME280;68165;51.920;4.492;2023-07-22T01:19:55;67955.09;;;18.95;79.07
44144;BME280;68165;51.920;4.492;2023-07-22T01:22:21;67968.28;;;19.02;78.80
44144;BME280;68165;51.920;4.492;2023-07-22T01:24:47;67965.22;;;19.04;78.82
44144;BME280;68165;51.920;4.492;2023-07-22T01:27:12;67975.19;;;19.10;78.50
44144;BME280;68165;51.920;4.492;2023-07-22T01:29:39;67974.78;;;19.12;78.10
44144;BME280;68165;51.920;4.492;2023-07-22T01:32:05;67977.00;;;19.14;78.06
44144;BME280;68165;51.920;4.492;2023-07-22T01:34:31;67984.16;;;19.18;78.06
44144;BME280;68165;51.920;4.492;2023-07-22T01:36:57;67984.88;;;19.22;77.82
44144;BME280;68165;51.920;4.492;2023-07-22T01:39:22;67989.78;;;19.24;77.71
44144;BME280;68165;51.920;4.492;2023-07-22T01:41:47;67988.25;;;19.25;77.58
44144;BME280;68165;51.920;4.492;2023-07-22T01:44:13;67989.38;;;19.26;77.60
44144;BME280;68165;51.920;4.492;2023-07-22T01:46:39;67987.53;;;19.22;77.68
44144;BME280;68165;51.920;4.492;2023-07-22T01:49:10;67988.25;;;19.25;77.59
44144;BME280;68165;51.920;4.492;2023-07-22T01:51:36;67993.88;;;19.30;77.49
44144;BME280;68165;51.920;4.492;2023-07-22T01:54:11;67992.75;;;19.29;77.48
44144;BME280;68165;51.920;4.492;2023-07-22T01:56:38;67983.34;;;19.23;77.18
44144;BME280;68165;51.920;4.492;2023-07-22T01:59:04;67990.50;;;19.27;77.31
44144;BME280;68165;51.920;4.492;2023-07-22T02:01:30;67994.28;;;19.28;77.35
44144;BME280;68165;51.920;4.492;2023-07-22T02:03:56;67993.56;;;19.25;77.31
44144;BME280;68165;51.920;4.492;2023-07-22T02:06:21;67985.44;;;19.22;77.36
44144;BME280;68165;51.920;4.492;2023-07-22T02:08:47;67979.97;;;19.20;77.33
44144;BME280;68165;51.920;4.492;2023-07-22T02:11:12;67981.91;;;19.16;77.25
44144;BME280;68165;51.920;4.492;2023-07-22T02:13:38;67980.38;;;19.17;77.33
44144;BME280;68165;51.920;4.492;2023-07-22T02:16:04;67972.53;;;19.10;77.17
44144;BME280;68165;51.920;4.492;2023-07-22T02:18:29;67977.84;;;19.10;77.45
44144;BME280;68165;51.920;4.492;2023-07-22T02:20:56;67971.22;;;19.07;77.88
44144;BME280;68165;51.920;4.492;2023-07-22T02:23:22;67971.09;;;19.04;77.97
44144;BME280;68165;51.920;4.492;2023-07-22T02:25:52;67972.78;;;19.06;77.93
44144;BME280;68165;51.920;4.492;2023-07-22T02:28:18;67964.50;;;19.01;78.10
44144;BME280;68165;51.920;4.492;2023-07-22T02:30:52;67960.72;;;19.00;78.62
44144;BME280;68165;51.920;4.492;2023-07-22T02:33:18;67953.44;;;18.93;79.82
44144;BME280;68165;51.920;4.492;2023-07-22T02:35:44;67942.44;;;18.79;80.89
44144;BME280;68165;51.920;4.492;2023-07-22T02:38:10;67926.22;;;18.73;81.61
44144;BME280;68165;51.920;4.492;2023-07-22T02:40:36;67930.97;;;18.73;82.07
44144;BME280;68165;51.920;4.492;2023-07-22T02:43:02;67925.19;;;18.65;82.22
44144;BME280;68165;51.920;4.492;2023-07-22T02:45:28;67934.44;;;18.69;82.17
44144;BME280;68165;51.920;4.492;2023-07-22T02:47:53;67929.25;;;18.71;81.88
44144;BME280;68165;51.920;4.492;2023-07-22T02:50:19;67929.69;;;18.69;81.53
44144;BME280;68165;51.920;4.492;2023-07-22T02:52:46;67920.84;;;18.64;81.78
44144;BME280;68165;51.920;4.492;2023-07-22T02:55:15;67922.38;;;18.63;82.26
44144;BME280;68165;51.920;4.492;2023-07-22T02:57:41;67919.72;;;18.63;82.12
44144;BME280;68165;51.920;4.492;2023-07-22T03:00:07;67925.59;;;18.63;82.27
44144;BME280;68165;51.920;4.492;2023-07-22T03:02:34;67918.59;;;18.62;82.29
44144;BME280;68165;51.920;4.492;2023-07-22T03:05:00;67922.38;;;18.63;82.66
44144;BME280;68165;51.920;4.492;2023-07-22T03:07:25;67917.91;;;18.59;82.61
44144;BME280;68165;51.920;4.492;2023-07-22T03:09:52;67913.69;;;18.60;82.73
44144;BME280;68165;51.920;4.492;2023-07-22T03:12:18;67919.00;;;18.60;82.59
44144;BME280;68165;51.920;4.492;2023-07-22T03:14:43;67915.78;;;18.59;82.84
44144;BME280;68165;51.920;4.492;2023-07-22T03:17:08;67905.44;;;18.55;83.29
44144;BME280;68165;51.920;4.492;2023-07-22T03:19:34;67916.78;;;18.58;84.09
44144;BME280;68165;51.920;4.492;2023-07-22T03:22:00;67916.06;;;18.55;84.03
44144;BME280;68165;51.920;4.492;2023-07-22T03:24:26;67911.13;;;18.53;84.91
44144;BME280;68165;51.920;4.492;2023-07-22T03:26:51;67903.97;;;18.49;86.10
44144;BME280;68165;51.920;4.492;2023-07-22T03:29:16;67903.28;;;18.46;86.97
44144;BME280;68165;51.920;4.492;2023-07-22T03:31:42;67896.53;;;18.40;87.83
44144;BME280;68165;51.920;4.492;2023-07-22T03:34:07;67900.63;;;18.46;88.67
44144;BME280;68165;51.920;4.492;2023-07-22T03:36:33;67902.16;;;18.45;88.98
44144;BME280;68165;51.920;4.492;2023-07-22T03:39:01;67903.69;;;18.44;90.14
44144;BME280;68165;51.920;4.492;2023-07-22T03:41:28;67899.91;;;18.43;90.77
44144;BME280;68165;51.920;4.492;2023-07-22T03:43:53;67900.63;;;18.46;91.47
44144;BME280;68165;51.920;4.492;2023-07-22T03:46:18;67903.28;;;18.46;92.11
44144;BME280;68165;51.920;4.492;2023-07-22T03:48:44;67902.16;;;18.45;92.58
44144;BME280;68165;51.920;4.492;2023-07-22T03:51:10;67905.38;;;18.45;93.43
44144;BME280;68165;51.920;4.492;2023-07-22T03:53:36;67904.81;;;18.45;94.29
44144;BME280;68165;51.920;4.492;2023-07-22T03:56:01;67903.97;;;18.49;94.55
44144;BME280;68165;51.920;4.492;2023-07-22T03:58:26;67909.44;;;18.51;94.73
44144;BME280;68165;51.920;4.492;2023-07-22T04:00:52;67905.09;;;18.50;95.29
44144;BME280;68165;51.920;4.492;2023-07-22T04:03:19;67908.16;;;18.48;95.92
44144;BME280;68165;51.920;4.492;2023-07-22T04:05:53;67907.59;;;18.47;96.95
44144;BME280;68165;51.920;4.492;2023-07-22T04:08:19;67900.75;;;18.48;97.20
44144;BME280;68165;51.920;4.492;2023-07-22T04:10:51;67909.59;;;18.54;97.57
44144;BME280;68165;51.920;4.492;2023-07-22T04:13:17;67901.75;;;18.47;97.60
44144;BME280;68165;51.920;4.492;2023-07-22T04:15:42;67897.25;;;18.43;98.02
44144;BME280;68165;51.920;4.492;2023-07-22T04:18:07;67899.50;;;18.45;98.25
44144;BME280;68165;51.920;4.492;2023-07-22T04:20:34;67903.13;;;18.43;98.35
44144;BME280;68165;51.920;4.492;2023-07-22T04:22:59;67888.84;;;18.35;98.97
44144;BME280;68165;51.920;4.492;2023-07-22T04:25:25;67884.91;;;18.31;99.30
44144;BME280;68165;51.920;4.492;2023-07-22T04:27:50;67887.72;;;18.34;99.55
44144;BME280;68165;51.920;4.492;2023-07-22T04:30:15;67888.69;;;18.32;99.65
44144;BME280;68165;51.920;4.492;2023-07-22T04:32:47;67891.06;;;18.37;99.94
44144;BME280;68165;51.920;4.492;2023-07-22T04:35:13;67894.16;;;18.35;100.00
44144;BME280;68165;51.920;4.492;2023-07-22T04:37:39;67887.72;;;18.34;100.00
44144;BME280;68165;51.920;4.492;2023-07-22T04:40:05;67891.31;;;18.32;100.00
44144;BME280;68165;51.920;4.492;2023-07-22T04:42:32;67895.56;;;18.41;100.00
44144;BME280;68165;51.920;4.492;2023-07-22T04:44:57;67898.94;;;18.44;100.00
44144;BME280;68165;51.920;4.492;2023-07-22T04:47:22;67899.91;;;18.43;100.00
44144;BME280;68165;51.920;4.492;2023-07-22T04:49:48;67907.94;;;18.52;100.00
44144;BME280;68165;51.920;4.492;2023-07-22T04:52:13;67918.31;;;18.57;100.00
44144;BME280;68165;51.920;4.492;2023-07-22T04:54:38;67912.03;;;18.58;99.90
44144;BME280;68165;51.920;4.492;2023-07-22T04:57:04;67913.00;;;18.57;99.70
44144;BME280;68165;51.920;4.492;2023-07-22T04:59:29;67918.44;;;18.59;99.64
44144;BME280;68165;51.920;4.492;2023-07-22T05:01:55;67914.69;;;18.58;99.66
44144;BME280;68165;51.920;4.492;2023-07-22T05:04:20;67920.56;;;18.59;99.53
44144;BME280;68165;51.920;4.492;2023-07-22T05:06:45;67919.56;;;18.60;99.54
44144;BME280;68165;51.920;4.492;2023-07-22T05:09:11;67922.69;;;18.68;99.48
44144;BME280;68165;51.920;4.492;2023-07-22T05:11:36;67937.41;;;18.74;99.15
44144;BME280;68165;51.920;4.492;2023-07-22T05:14:01;67940.34;;;18.79;98.91
44144;BME280;68165;51.920;4.492;2023-07-22T05:16:26;67939.94;;;18.81;98.82
44144;BME280;68165;51.920;4.492;2023-07-22T05:18:52;67935.31;;;18.74;99.04
44144;BME280;68165;51.920;4.492;2023-07-22T05:21:17;67934.75;;;18.74;99.09
44144;BME280;68165;51.920;4.492;2023-07-22T05:23:43;67938.09;;;18.77;99.41
44144;BME280;68165;51.920;4.492;2023-07-22T05:26:08;67942.19;;;18.83;99.09
44144;BME280;68165;51.920;4.492;2023-07-22T05:28:33;67948.38;;;18.89;99.09
44144;BME280;68165;51.920;4.492;2023-07-22T05:30:59;67959.44;;;18.96;98.91
44144;BME280;68165;51.920;4.492;2023-07-22T05:33:25;67972.78;;;19.06;98.66
44144;BME280;68165;51.920;4.492;2023-07-22T05:35:50;67966.09;;;19.09;98.52
44144;BME280;68165;51.920;4.492;2023-07-22T05:38:15;67979.41;;;19.19;98.05
44144;BME280;68165;51.920;4.492;2023-07-22T05:40:41;67986.41;;;19.21;98.30
44144;BME280;68165;51.920;4.492;2023-07-22T05:43:06;68001.97;;;19.32;98.05
44144;BME280;68165;51.920;4.492;2023-07-22T05:45:31;68004.53;;;19.39;97.48
44144;BME280;68165;51.920;4.492;2023-07-22T05:47:57;68013.00;;;19.47;97.58
44144;BME280;68165;51.920;4.492;2023-07-22T05:50:22;68009.59;;;19.44;97.69
44144;BME280;68165;51.920;4.492;2023-07-22T05:52:47;68010.72;;;19.45;97.76
44144;BME280;68165;51.920;4.492;2023-07-22T05:55:13;68011.69;;;19.43;98.13
44144;BME280;68165;51.920;4.492;2023-07-22T05:57:38;68016.78;;;19.48;98.01
44144;BME280;68165;51.920;4.492;2023-07-22T06:00:05;68024.78;;;19.58;97.40
44144;BME280;68165;51.920;4.492;2023-07-22T06:02:30;68034.91;;;19.67;96.94
44144;BME280;68165;51.920;4.492;2023-07-22T06:04:55;68041.50;;;19.70;96.47
44144;BME280;68165;51.920;4.492;2023-07-22T06:07:21;68041.06;;;19.72;96.20
44144;BME280;68165;51.920;4.492;2023-07-22T06:09:46;68045.72;;;19.79;96.36
44144;BME280;68165;51.920;4.492;2023-07-22T06:12:12;68063.97;;;19.90;96.33
44144;BME280;68165;51.920;4.492;2023-07-22T06:14:38;68074.81;;;20.03;95.68
44144;BME280;68165;51.920;4.492;2023-07-22T06:17:03;68083.22;;;20.10;95.39
44144;BME280;68165;51.920;4.492;2023-07-22T06:19:29;68081.53;;;20.09;95.39
44144;BME280;68165;51.920;4.492;2023-07-22T06:21:54;68085.50;;;20.12;95.17
44144;BME280;68165;51.920;4.492;2023-07-22T06:24:19;68086.06;;;20.13;95.25
44144;BME280;68165;51.920;4.492;2023-07-22T06:26:45;68088.00;;;20.10;95.17
44144;BME280;68165;51.920;4.492;2023-07-22T06:29:10;68078.19;;;20.06;95.49
44144;BME280;68165;51.920;4.492;2023-07-22T06:31:35;68080.84;;;20.06;95.81
44144;BME280;68165;51.920;4.492;2023-07-22T06:34:01;68082.53;;;20.07;95.70
44144;BME280;68165;51.920;4.492;2023-07-22T06:36:26;68080.44;;;20.08;95.67
44144;BME280;68165;51.920;4.492;2023-07-22T06:38:52;68085.91;;;20.10;95.79
44144;BME280;68165;51.920;4.492;2023-07-22T06:41:17;68109.13;;;20.33;95.01
44144;BME280;68165;51.920;4.492;2023-07-22T06:43:44;68144.56;;;20.65;94.21
44144;BME280;68165;51.920;4.492;2023-07-22T06:46:09;68168.72;;;20.87;93.17
44144;BME280;68165;51.920;4.492;2023-07-22T06:48:35;68172.81;;;20.93;92.12
44144;BME280;68165;51.920;4.492;2023-07-22T06:51:00;68178.28;;;20.96;91.96
44144;BME280;68165;51.920;4.492;2023-07-22T06:53:25;68174.91;;;20.93;91.96
44144;BME280;68165;51.920;4.492;2023-07-22T06:55:52;68172.69;;;20.91;91.88
44144;BME280;68165;51.920;4.492;2023-07-22T06:58:21;68180.81;;;20.93;92.32
44144;BME280;68165;51.920;4.492;2023-07-22T07:00:48;68171.53;;;20.90;91.64
44144;BME280;68165;51.920;4.492;2023-07-22T07:03:13;68183.75;;;20.98;91.37
44144;BME280;68165;51.920;4.492;2023-07-22T07:05:38;68178.28;;;20.96;90.85
44144;BME280;68165;51.920;4.492;2023-07-22T07:08:07;68185.63;;;21.02;90.89
44144;BME280;68165;51.920;4.492;2023-07-22T07:10:37;68188.00;;;21.07;90.46
44144;BME280;68165;51.920;4.492;2023-07-22T07:13:02;68197.72;;;21.18;89.60
44144;BME280;68165;51.920;4.492;2023-07-22T07:15:27;68212.06;;;21.26;89.19
44144;BME280;68165;51.920;4.492;2023-07-22T07:17:53;68213.19;;;21.27;88.44
44144;BME280;68165;51.920;4.492;2023-07-22T07:20:18;68210.94;;;21.25;87.98
44144;BME280;68165;51.920;4.492;2023-07-22T07:22:43;68223.72;;;21.34;87.69
44144;BME280;68165;51.920;4.492;2023-07-22T07:25:09;68235.69;;;21.47;86.96
44144;BME280;68165;51.920;4.492;2023-07-22T07:27:34;68256.53;;;21.66;86.11
44144;BME280;68165;51.920;4.492;2023-07-22T07:29:59;68288.47;;;21.92;85.36
44144;BME280;68165;51.920;4.492;2023-07-22T07:32:24;68299.31;;;22.05;84.26
44144;BME280;68165;51.920;4.492;2023-07-22T07:34:50;68312.81;;;22.17;83.71
44144;BME280;68165;51.920;4.492;2023-07-22T07:37:15;68332.53;;;22.34;82.71
44144;BME280;68165;51.920;4.492;2023-07-22T07:39:40;68339.84;;;22.41;81.73
44144;BME280;68165;51.920;4.492;2023-07-22T07:42:06;68356.03;;;22.53;80.77
44144;BME280;68165;51.920;4.492;2023-07-22T07:44:32;68366.31;;;22.65;80.23
44144;BME280;68165;51.920;4.492;2023-07-22T07:46:57;68383.81;;;22.81;78.91
44144;BME280;68165;51.920;4.492;2023-07-22T07:49:22;68395.66;;;22.91;78.14
44144;BME280;68165;51.920;4.492;2023-07-22T07:51:48;68397.06;;;22.97;77.50
44144;BME280;68165;51.920;4.492;2023-07-22T07:54:13;68440.31;;;23.34;75.99
44144;BME280;68165;51.920;4.492;2023-07-22T07:56:39;68476.25;;;23.64;74.10
44144;BME280;68165;51.920;4.492;2023-07-22T07:59:04;68491.47;;;23.77;72.65
44144;BME280;68165;51.920;4.492;2023-07-22T08:01:31;68490.34;;;23.76;71.18
44144;BME280;68165;51.920;4.492;2023-07-22T08:03:56;68489.78;;;23.76;71.07
44144;BME280;68165;51.920;4.492;2023-07-22T08:06:21;68480.63;;;23.65;71.45
44144;BME280;68165;51.920;4.492;2023-07-22T08:08:47;68482.44;;;23.69;70.83
44144;BME280;68165;51.920;4.492;2023-07-22T08:11:14;68491.47;;;23.77;69.19
44144;BME280;68165;51.920;4.492;2023-07-22T08:13:40;68530.94;;;24.13;67.74
44144;BME280;68165;51.920;4.492;2023-07-22T08:16:08;68580.56;;;24.57;66.08
44144;BME280;68165;51.920;4.492;2023-07-22T08:18:34;68625.03;;;24.95;64.23
44144;BME280;68165;51.920;4.492;2023-07-22T08:21:01;68636.88;;;25.05;62.51
44144;BME280;68165;51.920;4.492;2023-07-22T08:23:28;68633.63;;;25.05;61.88
44144;BME280;68165;51.920;4.492;2023-07-22T08:25:53;68628.53;;;25.00;60.56
44144;BME280;68165;51.920;4.492;2023-07-22T08:28:18;68620.34;;;24.88;61.10
44144;BME280;68165;51.920;4.492;2023-07-22T08:30:44;68614.41;;;24.88;60.59
44144;BME280;68165;51.920;4.492;2023-07-22T08:33:10;68612.72;;;24.86;60.79
44144;BME280;68165;51.920;4.492;2023-07-22T08:35:38;68615.00;;;24.88;60.70
44144;BME280;68165;51.920;4.492;2023-07-22T08:38:04;68611.91;;;24.90;61.10
44144;BME280;68165;51.920;4.492;2023-07-22T08:40:37;68626.28;;;24.98;61.29
44144;BME280;68165;51.920;4.492;2023-07-22T08:43:04;68608.50;;;24.87;60.06
44144;BME280;68165;51.920;4.492;2023-07-22T08:45:31;68604.56;;;24.84;60.70
44144;BME280;68165;51.920;4.492;2023-07-22T08:47:59;68609.75;;;24.81;60.93
44144;BME280;68165;51.920;4.492;2023-07-22T08:50:29;68612.59;;;24.84;60.71
44144;BME280;68165;51.920;4.492;2023-07-22T08:52:55;68609.91;;;24.84;60.14
44144;BME280;68165;51.920;4.492;2023-07-22T08:55:21;68608.63;;;24.80;60.29
44144;BME280;68165;51.920;4.492;2023-07-22T08:57:48;68593.53;;;24.69;60.36
44144;BME280;68165;51.920;4.492;2023-07-22T09:00:14;68592.28;;;24.65;60.24
44144;BME280;68165;51.920;4.492;2023-07-22T09:02:41;68597.78;;;24.77;60.47
44144;BME280;68165;51.920;4.492;2023-07-22T09:05:07;68624.59;;;24.97;59.84
44144;BME280;68165;51.920;4.492;2023-07-22T09:07:35;68651.66;;;25.21;59.20
44144;BME280;68165;51.920;4.492;2023-07-22T09:10:01;68673.69;;;25.41;57.66
44144;BME280;68165;51.920;4.492;2023-07-22T09:12:29;68708.84;;;25.75;56.19
44144;BME280;68165;51.920;4.492;2023-07-22T09:14:55;68721.41;;;25.88;54.41
44144;BME280;68165;51.920;4.492;2023-07-22T09:17:21;68748.09;;;26.05;53.06
44144;BME280;68165;51.920;4.492;2023-07-22T09:19:52;68768.13;;;26.28;52.11
44144;BME280;68165;51.920;4.492;2023-07-22T09:22:18;68796.25;;;26.51;49.34
44144;BME280;68165;51.920;4.492;2023-07-22T09:24:43;68796.25;;;26.51;49.15
44144;BME280;68165;51.920;4.492;2023-07-22T09:27:09;68782.44;;;26.33;49.17
44144;BME280;68165;51.920;4.492;2023-07-22T09:29:36;68753.31;;;26.12;49.63
44144;BME280;68165;51.920;4.492;2023-07-22T09:32:03;68718.28;;;25.81;50.23
44144;BME280;68165;51.920;4.492;2023-07-22T09:34:29;68700.53;;;25.60;50.78
44144;BME280;68165;51.920;4.492;2023-07-22T09:36:58;68673.13;;;25.40;50.98
44144;BME280;68165;51.920;4.492;2023-07-22T09:39:29;68664.09;;;25.32;51.23
44144;BME280;68165;51.920;4.492;2023-07-22T09:41:54;68649.44;;;25.19;50.47
44144;BME280;68165;51.920;4.492;2023-07-22T09:44:20;68627.97;;;25.00;50.05
44144;BME280;68165;51.920;4.492;2023-07-22T09:46:49;68601.59;;;24.78;50.60
44144;BME280;68165;51.920;4.492;2023-07-22T09:49:17;68580.56;;;24.57;50.93
44144;BME280;68165;51.920;4.492;2023-07-22T09:51:42;68573.81;;;24.51;50.84
44144;BME280;68165;51.920;4.492;2023-07-22T09:54:07;68585.06;;;24.61;51.15
44144;BME280;68165;51.920;4.492;2023-07-22T09:56:44;68606.97;;;24.78;51.57
44144;BME280;68165;51.920;4.492;2023-07-22T09:59:10;68626.56;;;24.94;51.04
44144;BME280;68165;51.920;4.492;2023-07-22T10:01:38;68623.75;;;24.91;51.01
44144;BME280;68165;51.920;4.492;2023-07-22T10:04:05;68600.47;;;24.77;51.46
44144;BME280;68165;51.920;4.492;2023-07-22T10:06:32;68592.69;;;24.63;51.94
44144;BME280;68165;51.920;4.492;2023-07-22T10:09:05;68561.41;;;24.40;52.19
44144;BME280;68165;51.920;4.492;2023-07-22T10:11:34;68544.91;;;24.23;52.58
44144;BME280;68165;51.920;4.492;2023-07-22T10:14:04;68520.78;;;24.04;52.09
44144;BME280;68165;51.920;4.492;2023-07-22T10:16:30;68512.19;;;23.93;51.95
44144;BME280;68165;51.920;4.492;2023-07-22T10:18:56;68501.59;;;23.86;52.59
44144;BME280;68165;51.920;4.492;2023-07-22T10:21:23;68501.03;;;23.86;52.35
44144;BME280;68165;51.920;4.492;2023-07-22T10:23:49;68494.16;;;23.77;52.43
44144;BME280;68165;51.920;4.492;2023-07-22T10:26:19;68492.00;;;23.78;52.33
44144;BME280;68165;51.920;4.492;2023-07-22T10:28:45;68492.16;;;23.80;52.02
44144;BME280;68165;51.920;4.492;2023-07-22T10:31:15;68500.47;;;23.85;51.87
44144;BME280;68165;51.920;4.492;2023-07-22T10:33:45;68522.31;;;24.02;50.96
44144;BME280;68165;51.920;4.492;2023-07-22T10:36:15;68555.63;;;24.32;50.68
44144;BME280;68165;51.920;4.492;2023-07-22T10:38:41;68573.25;;;24.51;50.00
44144;BME280;68165;51.920;4.492;2023-07-22T10:41:15;68587.22;;;24.61;49.68
44144;BME280;68165;51.920;4.492;2023-07-22T10:43:57;68623.31;;;24.93;49.31
44144;BME280;68165;51.920;4.492;2023-07-22T10:46:38;68643.78;;;25.14;49.00
44144;BME280;68165;51.920;4.492;2023-07-22T10:49:16;68654.50;;;25.24;49.50
44144;BME280;68165;51.920;4.492;2023-07-22T10:51:47;68658.44;;;25.27;49.79
44144;BME280;68165;51.920;4.492;2023-07-22T10:54:14;68710.94;;;25.74;49.22
44144;BME280;68165;51.920;4.492;2023-07-22T10:56:48;68703.63;;;25.68;48.17
44144;BME280;68165;51.920;4.492;2023-07-22T10:59:13;68722.81;;;25.85;47.01
44144;BME280;68165;51.920;4.492;2023-07-22T11:01:43;68745.13;;;26.10;46.77
44144;BME280;68165;51.920;4.492;2023-07-22T11:14:31;68747.25;;;26.09;45.42
44144;BME280;68165;51.920;4.492;2023-07-22T11:16:58;68757.69;;;26.14;45.30
44144;BME280;68165;51.920;4.492;2023-07-22T11:19:25;68726.91;;;25.91;45.50
44144;BME280;68165;51.920;4.492;2023-07-22T11:21:52;68729.88;;;25.86;46.04
44144;BME280;68165;51.920;4.492;2023-07-22T11:24:19;68720.00;;;25.82;45.48
44144;BME280;68165;51.920;4.492;2023-07-22T11:26:46;68717.19;;;25.80;45.50
44144;BME280;68165;51.920;4.492;2023-07-22T11:29:12;68710.94;;;25.74;44.43
44144;BME280;68165;51.920;4.492;2023-07-22T11:31:45;68728.19;;;25.85;44.35
44144;BME280;68165;51.920;4.492;2023-07-22T11:34:19;68745.41;;;26.05;43.57
44144;BME280;68165;51.920;4.492;2023-07-22T11:36:46;68741.88;;;25.99;43.65
44144;BME280;68165;51.920;4.492;2023-07-22T11:39:13;68716.63;;;25.79;44.20
44144;BME280;68165;51.920;4.492;2023-07-22T11:41:39;68698.41;;;25.60;44.76
44144;BME280;68165;51.920;4.492;2023-07-22T11:44:09;68697.28;;;25.59;45.03
44144;BME280;68165;51.920;4.492;2023-07-22T11:46:36;68697.44;;;25.62;44.92
44144;BME280;68165;51.920;4.492;2023-07-22T11:49:11;68702.50;;;25.67;44.44
44144;BME280;68165;51.920;4.492;2023-07-22T11:51:37;68683.84;;;25.50;45.11
44144;BME280;68165;51.920;4.492;2023-07-22T11:54:07;68650.97;;;25.18;45.45
44144;BME280;68165;51.920;4.492;2023-07-22T11:56:33;68609.34;;;24.83;46.36
44144;BME280;68165;51.920;4.492;2023-07-22T11:58:58;68591.28;;;24.67;47.07
44144;BME280;68165;51.920;4.492;2023-07-22T12:01:31;68594.69;;;24.70;47.21
44144;BME280;68165;51.920;4.492;2023-07-22T12:03:57;68585.50;;;24.59;47.54
44144;BME280;68165;51.920;4.492;2023-07-22T12:06:25;68567.44;;;24.43;48.26
44144;BME280;68165;51.920;4.492;2023-07-22T12:08:51;68547.16;;;24.25;48.72
44144;BME280;68165;51.920;4.492;2023-07-22T12:13:43;68514.88;;;23.93;49.99
44144;BME280;68165;51.920;4.492;2023-07-22T12:16:12;68491.31;;;23.75;50.46
44144;BME280;68165;51.920;4.492;2023-07-22T12:18:42;68475.69;;;23.63;50.94
44144;BME280;68165;51.920;4.492;2023-07-22T12:21:07;68456.09;;;23.48;51.66
44144;BME280;68165;51.920;4.492;2023-07-22T12:23:34;68432.81;;;23.25;52.62
44144;BME280;68165;51.920;4.492;2023-07-22T12:25:59;68422.97;;;23.11;53.12
44144;BME280;68165;51.920;4.492;2023-07-22T12:28:25;68407.47;;;23.02;53.84
44144;BME280;68165;51.920;4.492;2023-07-22T12:30:50;68401.84;;;22.97;54.46
44144;BME280;68165;51.920;4.492;2023-07-22T12:33:15;68407.91;;;23.00;54.04
44144;BME280;68165;51.920;4.492;2023-07-22T12:35:40;68404.09;;;22.99;54.36
44144;BME280;68165;51.920;4.492;2023-07-22T12:38:06;68400.56;;;22.93;54.46
44144;BME280;68165;51.920;4.492;2023-07-22T12:40:31;68387.75;;;22.84;53.94
44144;BME280;68165;51.920;4.492;2023-07-22T12:42:58;68386.63;;;22.83;53.44
44144;BME280;68165;51.920;4.492;2023-07-22T12:45:23;68384.22;;;22.78;53.02
44144;BME280;68165;51.920;4.492;2023-07-22T12:47:48;68382.13;;;22.79;53.47
44144;BME280;68165;51.920;4.492;2023-07-22T12:50:14;68391.16;;;22.87;53.06
44144;BME280;68165;51.920;4.492;2023-07-22T12:52:39;68402.41;;;22.97;53.26
44144;BME280;68165;51.920;4.492;2023-07-22T12:55:04;68431.00;;;23.20;52.57
44144;BME280;68165;51.920;4.492;2023-07-22T12:57:30;68448.59;;;23.39;51.59
44144;BME280;68165;51.920;4.492;2023-07-22T12:59:55;68478.78;;;23.61;50.91
44144;BME280;68165;51.920;4.492;2023-07-22T13:02:21;68479.34;;;23.62;51.04
44144;BME280;68165;51.920;4.492;2023-07-22T13:04:47;68469.19;;;23.52;51.77
44144;BME280;68165;51.920;4.492;2023-07-22T13:07:13;68452.41;;;23.40;51.75
44144;BME280;68165;51.920;4.492;2023-07-22T13:09:38;68428.31;;;23.20;52.02